Terminal Aerodrome Forecast
Issued by NWS Twin Cities, MN

Home | Current Version | Previous Version | Text Only | Print | Product List | Glossary Off
Versions: 1 2 3 4 5 6 7 8 9 10 11 12 13 14 15 16 17 18 19 20 21 22 23 24 25 26 27

000
FTUS43 KMPX 281700
TAFMSP
TAF
KMSP 281732Z 2818/2924 17007KT P6SM SCT060
     FM282000 21008KT P6SM SCT060
     FM290000 23005KT P6SM SCT060
     FM290600 28004KT P6SM SCT080
     FM291000 36006KT 6SM BR BKN025 OVC050
     FM291300 02010KT P6SM VCSH BKN012 OVC025
     FM291800 03011KT P6SM SCT018 OVC035=

USA.gov is the U.S. government's official web portal to all federal, state and local government web resources and services.